createdAt,value
2022-08-26T00:00:49.948Z,433.3
2022-08-26T00:02:33.637Z,434.4
2022-08-26T00:04:17.349Z,434.5
2022-08-26T00:06:01.051Z,433.6
2022-08-26T00:07:44.748Z,433.6
2022-08-26T00:09:28.452Z,433.8
2022-08-26T00:11:12.159Z,434.1
2022-08-26T00:12:55.846Z,429.3
2022-08-26T00:14:39.568Z,427.6
2022-08-26T00:16:23.264Z,428.8
2022-08-26T00:18:06.962Z,429.4
2022-08-26T00:19:50.670Z,433.1
2022-08-26T00:21:34.369Z,434.1
2022-08-26T00:23:18.082Z,436.8
2022-08-26T00:25:01.894Z,434.7
2022-08-26T00:26:45.464Z,434
2022-08-26T00:28:29.172Z,430.6
2022-08-26T00:30:12.876Z,430
2022-08-26T00:31:56.574Z,427.3
2022-08-26T00:33:40.285Z,424.6
2022-08-26T00:35:23.978Z,425.2
2022-08-26T00:37:07.679Z,423.1
2022-08-26T00:38:51.384Z,421.6
2022-08-26T00:40:35.094Z,423.5
2022-08-26T00:42:18.791Z,422.9
2022-08-26T00:44:02.493Z,419.7
2022-08-26T00:45:46.207Z,419.3
2022-08-26T00:47:29.897Z,420.2
2022-08-26T00:49:13.606Z,421.1
2022-08-26T00:50:57.301Z,422.8
2022-08-26T00:52:41.016Z,423.9
2022-08-26T00:54:24.715Z,430.1
2022-08-26T00:56:08.407Z,430.8
2022-08-26T00:57:52.118Z,432
2022-08-26T00:59:35.812Z,431.6
2022-08-26T01:01:19.523Z,430.6
2022-08-26T01:03:03.215Z,429.6
2022-08-26T01:04:46.914Z,428.4
2022-08-26T01:06:30.618Z,429.8
2022-08-26T01:08:14.326Z,426.8
2022-08-26T01:09:58.031Z,427.1
2022-08-26T01:11:41.729Z,427.2
2022-08-26T01:13:25.434Z,427.4
2022-08-26T01:15:09.138Z,426.7
2022-08-26T01:16:52.839Z,427.7
2022-08-26T01:18:36.538Z,429.7
2022-08-26T01:20:20.244Z,431.7
2022-08-26T01:22:03.945Z,437.5
2022-08-26T01:23:47.640Z,440.1
2022-08-26T01:25:31.343Z,438.5
2022-08-26T01:27:15.050Z,439.5
2022-08-26T01:28:58.749Z,437.9
2022-08-26T01:30:42.459Z,435.4
2022-08-26T01:32:26.156Z,434.8
2022-08-26T01:34:09.873Z,433
2022-08-26T01:35:53.580Z,433.1
2022-08-26T01:37:37.258Z,435.7
2022-08-26T01:39:20.969Z,435.3
2022-08-26T01:41:04.670Z,436.1
2022-08-26T01:42:48.368Z,437.9
2022-08-26T01:44:32.080Z,440.8
2022-08-26T01:46:15.774Z,443.3
2022-08-26T01:47:59.475Z,441.5
2022-08-26T01:49:43.175Z,441
2022-08-26T01:51:26.893Z,441
2022-08-26T01:53:10.589Z,439.9
2022-08-26T01:54:54.291Z,441.8
2022-08-26T01:56:37.994Z,443.6
2022-08-26T01:58:21.695Z,447.3
2022-08-26T02:00:05.397Z,447.1
2022-08-26T02:01:49.091Z,446.8
2022-08-26T02:03:32.794Z,448
2022-08-26T02:05:16.499Z,447.8
2022-08-26T02:07:00.194Z,449
2022-08-26T02:08:43.899Z,445.2
2022-08-26T02:10:27.616Z,442.7
2022-08-26T02:12:11.300Z,439.3
2022-08-26T02:13:55.016Z,439.3
2022-08-26T02:15:38.717Z,439.8
2022-08-26T02:17:22.416Z,438.8
2022-08-26T02:19:06.116Z,437.7
2022-08-26T02:20:49.830Z,437.5
2022-08-26T02:22:33.511Z,435.8
2022-08-26T02:24:17.217Z,437.8
2022-08-26T02:26:00.925Z,439.3
2022-08-26T02:27:44.643Z,438.9
2022-08-26T02:29:28.321Z,439.6
2022-08-26T02:31:12.023Z,441.6
2022-08-26T02:32:55.727Z,440.4
2022-08-26T02:34:39.429Z,439.5
2022-08-26T02:36:23.135Z,438.6
2022-08-26T02:38:06.833Z,437.6
2022-08-26T02:39:50.531Z,438.3
2022-08-26T02:41:34.241Z,440.3
2022-08-26T02:43:17.945Z,439
2022-08-26T02:45:01.642Z,440.7
2022-08-26T02:46:45.350Z,443.3
2022-08-26T02:48:29.054Z,444.4
2022-08-26T02:50:12.757Z,442.7
2022-08-26T02:51:56.454Z,447.9
2022-08-26T02:53:40.158Z,448.8
2022-08-26T02:55:23.852Z,446.5
2022-08-26T02:57:07.555Z,448.4
2022-08-26T02:58:51.265Z,446.1
2022-08-26T03:00:34.966Z,444.7
2022-08-26T03:02:18.669Z,440.5
2022-08-26T03:04:02.363Z,438.9
2022-08-26T03:05:46.086Z,437
2022-08-26T03:07:29.780Z,435.2
2022-08-26T03:09:13.464Z,432.1
2022-08-26T03:10:57.169Z,427.1
2022-08-26T03:12:40.880Z,428.4
2022-08-26T03:14:24.567Z,427.9
2022-08-26T03:16:08.280Z,426.3
2022-08-26T03:17:51.974Z,423.5
2022-08-26T03:19:35.675Z,421.1
2022-08-26T03:21:19.380Z,423.4
2022-08-26T03:23:03.076Z,423
2022-08-26T03:24:46.781Z,422.8
2022-08-26T03:26:30.488Z,422.1
2022-08-26T03:28:14.182Z,425.9
2022-08-26T03:29:57.884Z,424.3
2022-08-26T03:31:41.589Z,416.9
2022-08-26T03:33:25.289Z,415.7
2022-08-26T03:35:08.986Z,418.9
2022-08-26T03:36:52.691Z,425.3
2022-08-26T03:38:36.395Z,430.6
2022-08-26T03:40:20.097Z,429.9
2022-08-26T03:42:03.794Z,429
2022-08-26T03:43:47.506Z,428.8
2022-08-26T03:45:31.204Z,427.8
2022-08-26T03:47:14.910Z,428.5
2022-08-26T03:48:58.602Z,430.4
2022-08-26T03:50:42.308Z,432.5
2022-08-26T03:52:25.693Z,432.6
2022-08-26T03:54:09.399Z,433.7
2022-08-26T03:55:53.102Z,433.6
2022-08-26T03:57:36.799Z,432.7
2022-08-26T03:59:20.502Z,433.4
2022-08-26T04:01:04.198Z,437.4
2022-08-26T04:02:47.904Z,436.7
2022-08-26T04:04:31.611Z,436.5
2022-08-26T04:06:15.306Z,433.9
2022-08-26T04:07:59.030Z,432.7
2022-08-26T04:09:42.715Z,437.5
2022-08-26T04:11:26.417Z,434.5
2022-08-26T04:13:10.111Z,434.5
2022-08-26T04:14:53.825Z,434.3
2022-08-26T04:16:37.515Z,431.7
2022-08-26T04:18:21.228Z,431.8
2022-08-26T04:20:04.923Z,433
2022-08-26T04:21:48.622Z,433.3
2022-08-26T04:23:32.323Z,431.1
2022-08-26T04:25:16.019Z,429.8
2022-08-26T04:26:59.724Z,429.9
2022-08-26T04:28:43.427Z,432.6
2022-08-26T04:30:27.121Z,433.4
2022-08-26T04:32:10.825Z,436.3
2022-08-26T04:33:54.531Z,438.2
2022-08-26T04:35:38.230Z,437.6
2022-08-26T04:37:21.936Z,439.4
2022-08-26T04:39:05.633Z,438.5
2022-08-26T04:40:49.339Z,437.9
2022-08-26T04:42:33.044Z,437.7
2022-08-26T04:44:16.739Z,436.9
2022-08-26T04:46:00.444Z,437.1
2022-08-26T04:47:44.147Z,439.8
2022-08-26T04:49:27.837Z,440
2022-08-26T04:51:11.545Z,441.4
2022-08-26T04:52:55.252Z,443.2
2022-08-26T04:54:38.949Z,441.6
2022-08-26T04:56:22.645Z,443.4
2022-08-26T04:58:06.351Z,444
2022-08-26T04:59:50.060Z,445.3
2022-08-26T05:01:33.759Z,449.3
2022-08-26T05:03:17.466Z,448.9
2022-08-26T05:05:01.161Z,453.1
2022-08-26T05:06:44.872Z,455.1
2022-08-26T05:08:28.558Z,457.8
2022-08-26T05:10:12.265Z,462.6
2022-08-26T05:11:55.968Z,462.1
2022-08-26T05:13:39.660Z,459.5
2022-08-26T05:15:23.401Z,461.7
2022-08-26T05:17:07.074Z,463.1
2022-08-26T05:18:50.776Z,466.2
2022-08-26T05:20:34.480Z,465.9
2022-08-26T05:22:18.178Z,470
2022-08-26T05:24:01.889Z,474.8
2022-08-26T05:25:45.584Z,473.2
2022-08-26T05:27:29.279Z,471.7
2022-08-26T05:29:12.979Z,469.9
2022-08-26T05:30:56.703Z,468.9
2022-08-26T05:32:40.385Z,470.4
2022-08-26T05:34:24.093Z,470.6
2022-08-26T05:36:07.792Z,465.4
2022-08-26T05:37:51.493Z,463
2022-08-26T05:39:35.208Z,463.4
2022-08-26T05:41:18.896Z,464.5
2022-08-26T05:43:02.617Z,468.2
2022-08-26T05:44:46.319Z,470.5
2022-08-26T05:46:30.000Z,469.1
2022-08-26T05:48:13.713Z,468.4
2022-08-26T05:49:57.414Z,468.1
2022-08-26T05:51:41.109Z,468.5
2022-08-26T05:53:24.820Z,467.8
2022-08-26T05:55:08.519Z,468.8
2022-08-26T05:56:52.214Z,466.4
2022-08-26T05:58:35.919Z,463.6
2022-08-26T06:00:19.628Z,464
2022-08-26T06:02:03.326Z,463.4
2022-08-26T06:03:47.035Z,462
2022-08-26T06:05:30.727Z,459.3
2022-08-26T06:07:14.428Z,464.7
2022-08-26T06:08:58.137Z,468.9
2022-08-26T06:10:41.832Z,466.3
2022-08-26T06:12:25.540Z,463.2
2022-08-26T06:14:09.240Z,462.2
2022-08-26T06:15:52.938Z,461.5
2022-08-26T06:17:36.648Z,459.3
2022-08-26T06:19:20.354Z,460.8
2022-08-26T06:21:04.063Z,459.6
2022-08-26T06:22:47.756Z,458
2022-08-26T06:24:31.452Z,457
2022-08-26T06:26:15.213Z,457.6
2022-08-26T06:27:58.862Z,453.8
2022-08-26T06:29:42.551Z,452.5
2022-08-26T06:31:26.262Z,453.7
2022-08-26T06:33:09.963Z,455.1
2022-08-26T06:34:53.657Z,456.7
2022-08-26T06:36:37.363Z,457.7
2022-08-26T06:38:21.062Z,459.7
2022-08-26T06:40:04.774Z,459.7
2022-08-26T06:41:48.472Z,459.1
2022-08-26T06:43:32.170Z,458.4
2022-08-26T06:45:15.874Z,455.4
2022-08-26T06:46:59.591Z,453.8
2022-08-26T06:48:43.280Z,453.5
2022-08-26T06:50:26.981Z,451.4
2022-08-26T06:52:10.688Z,449.1
2022-08-26T06:53:54.389Z,448.8
2022-08-26T06:55:38.096Z,449.6
2022-08-26T06:57:21.791Z,449.2
2022-08-26T06:59:05.496Z,448.6
2022-08-26T07:00:49.198Z,446.3
2022-08-26T07:02:32.912Z,447.3
2022-08-26T07:04:16.610Z,447.8
2022-08-26T07:06:00.308Z,443.9
2022-08-26T07:07:44.001Z,442.2
2022-08-26T07:09:27.712Z,443.1
2022-08-26T07:11:11.417Z,443.9
2022-08-26T07:12:55.104Z,441.7
2022-08-26T07:14:38.809Z,442.1
2022-08-26T07:16:22.514Z,446.3
2022-08-26T07:18:06.210Z,444.5
2022-08-26T07:19:49.916Z,440.6
2022-08-26T07:21:33.628Z,439.7
2022-08-26T07:23:17.325Z,439
2022-08-26T07:25:01.060Z,436.2
2022-08-26T07:26:44.721Z,434.5
2022-08-26T07:28:28.430Z,433.1
2022-08-26T07:30:12.137Z,435.1
2022-08-26T07:31:55.832Z,434.6
2022-08-26T07:33:39.528Z,435
2022-08-26T07:35:23.237Z,434.3
2022-08-26T07:37:06.956Z,436.5
2022-08-26T07:38:50.634Z,438.8
2022-08-26T07:40:34.346Z,438.8
2022-08-26T07:42:18.043Z,438
2022-08-26T07:44:01.756Z,437.7
2022-08-26T07:45:45.443Z,435.2
2022-08-26T07:47:29.170Z,437.3
2022-08-26T07:49:12.854Z,435.2
2022-08-26T07:50:56.542Z,436.2
2022-08-26T07:52:40.255Z,437.7
2022-08-26T07:54:23.957Z,437.2
2022-08-26T07:56:07.650Z,437.9
2022-08-26T07:57:51.371Z,437.9
2022-08-26T07:59:35.077Z,436.1
2022-08-26T08:01:18.777Z,435.2
2022-08-26T08:03:02.480Z,434
2022-08-26T08:04:46.169Z,434.2
2022-08-26T08:06:29.878Z,433.4
2022-08-26T08:08:13.575Z,430.1
2022-08-26T08:09:57.274Z,427.8
2022-08-26T08:11:40.977Z,429.3
2022-08-26T08:13:24.678Z,431.6
2022-08-26T08:15:08.379Z,432.8
2022-08-26T08:16:52.088Z,431.3
2022-08-26T08:18:35.781Z,430.1
2022-08-26T08:20:19.484Z,430.8
2022-08-26T08:22:03.194Z,428
2022-08-26T08:23:46.886Z,430
2022-08-26T08:25:30.594Z,430.1
2022-08-26T08:27:14.299Z,428.1
2022-08-26T08:28:57.997Z,425.5
2022-08-26T08:30:41.698Z,427.1
2022-08-26T08:32:25.402Z,425.8
2022-08-26T08:34:09.100Z,423.2
2022-08-26T08:35:52.818Z,424.2
2022-08-26T08:37:36.511Z,425.7
2022-08-26T08:39:20.208Z,425.3
2022-08-26T08:41:03.914Z,423
2022-08-26T08:42:47.628Z,421.5
2022-08-26T08:44:31.317Z,423.8
2022-08-26T08:46:15.026Z,425.6
2022-08-26T08:47:58.733Z,424.3
2022-08-26T08:49:42.430Z,425.7
2022-08-26T08:51:26.128Z,423.6
2022-08-26T08:53:09.829Z,419
2022-08-26T08:54:53.539Z,413.4
2022-08-26T08:56:37.239Z,413.5
2022-08-26T08:58:20.923Z,414.8
2022-08-26T09:00:04.646Z,411.9
2022-08-26T09:01:48.346Z,412.3
2022-08-26T09:03:32.040Z,412.5
2022-08-26T09:05:15.748Z,414.9
2022-08-26T09:06:59.446Z,412.6
2022-08-26T09:08:43.170Z,409.8
2022-08-26T09:10:26.861Z,408.8
2022-08-26T09:12:10.551Z,407.7
2022-08-26T09:13:54.265Z,407.1
2022-08-26T09:15:37.966Z,409
2022-08-26T09:17:21.669Z,408.8
2022-08-26T09:19:05.371Z,411.1
2022-08-26T09:20:49.070Z,409.9
2022-08-26T09:22:32.764Z,410.1
2022-08-26T09:24:16.469Z,409.9
2022-08-26T09:26:00.174Z,413.4
2022-08-26T09:27:43.894Z,416.3
2022-08-26T09:29:27.581Z,417.4
2022-08-26T09:31:11.285Z,416.8
2022-08-26T09:32:54.977Z,414.4
2022-08-26T09:36:22.399Z,415.9
2022-08-26T09:38:06.085Z,415.3
2022-08-26T09:39:49.790Z,417.4
2022-08-26T09:41:33.485Z,417.1
2022-08-26T09:43:17.190Z,419.5
2022-08-26T09:45:00.891Z,419
2022-08-26T09:46:44.594Z,418.6
2022-08-26T09:48:28.300Z,420.7
2022-08-26T09:50:11.999Z,420
2022-08-26T09:51:55.706Z,418.8
2022-08-26T09:53:39.415Z,418.9
2022-08-26T09:55:23.107Z,419.3
2022-08-26T09:57:06.829Z,420.8
2022-08-26T09:58:50.514Z,420.9
2022-08-26T10:00:34.205Z,424.5
2022-08-26T10:02:17.914Z,426.5
2022-08-26T10:04:01.622Z,426.8
2022-08-26T10:05:45.311Z,427.1
2022-08-26T10:07:29.021Z,424.4
2022-08-26T10:09:12.718Z,421.9
2022-08-26T10:10:56.423Z,421.1
2022-08-26T10:12:40.133Z,420
2022-08-26T10:14:23.826Z,422
2022-08-26T10:16:07.529Z,416.7
2022-08-26T10:17:51.238Z,414.4
2022-08-26T10:19:34.943Z,412.3
2022-08-26T10:21:18.646Z,413.9
2022-08-26T10:23:02.343Z,419.1
2022-08-26T10:24:46.047Z,420.7
2022-08-26T10:26:29.779Z,420.5
2022-08-26T10:28:13.445Z,418.4
2022-08-26T10:29:57.155Z,416.5
2022-08-26T10:31:40.859Z,412.2
2022-08-26T10:33:24.545Z,409.4
2022-08-26T10:35:08.253Z,409.1
2022-08-26T10:36:51.958Z,406.9
2022-08-26T10:38:35.661Z,402.1
2022-08-26T10:40:19.361Z,400.7
2022-08-26T10:42:03.062Z,399.2
2022-08-26T10:43:46.767Z,399.9
2022-08-26T10:45:30.472Z,401.9
2022-08-26T10:47:14.170Z,399.5
2022-08-26T10:48:57.870Z,400.6
2022-08-26T10:50:41.578Z,401.7
2022-08-26T10:52:25.278Z,402.5
2022-08-26T10:54:08.985Z,400.6
2022-08-26T10:55:52.704Z,400.6
2022-08-26T10:57:36.380Z,400.7
2022-08-26T10:59:20.086Z,400
2022-08-26T11:01:03.793Z,400.3
2022-08-26T11:02:47.495Z,400.4
2022-08-26T11:04:31.203Z,401.6
2022-08-26T11:06:14.889Z,398.4
2022-08-26T11:07:58.606Z,395.7
2022-08-26T11:09:42.304Z,396.3
2022-08-26T11:11:25.995Z,393.8
2022-08-26T11:13:09.702Z,392.4
2022-08-26T11:14:53.408Z,391.8
2022-08-26T11:16:37.114Z,391.4
2022-08-26T11:18:20.820Z,395.3
2022-08-26T11:20:04.512Z,394.6
2022-08-26T11:21:48.216Z,397.1
2022-08-26T11:23:31.917Z,401.3
2022-08-26T11:25:15.610Z,401
2022-08-26T11:26:59.318Z,401.5
2022-08-26T11:28:43.031Z,405.6
2022-08-26T11:30:26.721Z,408.9
2022-08-26T11:32:10.423Z,407.5
2022-08-26T11:33:54.120Z,408.8
2022-08-26T11:35:37.821Z,406.5
2022-08-26T11:37:21.533Z,409.8
2022-08-26T11:39:05.235Z,410.1
2022-08-26T11:40:48.933Z,409.7
2022-08-26T11:42:32.640Z,410.2
2022-08-26T11:44:16.332Z,410
2022-08-26T11:46:00.042Z,411.6
2022-08-26T11:47:43.735Z,409.2
2022-08-26T11:49:27.443Z,407.4
2022-08-26T11:51:11.145Z,407.4
2022-08-26T11:52:54.862Z,405.9
2022-08-26T11:54:38.549Z,407.7
2022-08-26T11:56:22.255Z,410.3
2022-08-26T11:58:05.945Z,410.7
2022-08-26T11:59:49.670Z,410.9
2022-08-26T12:01:33.368Z,409.7
2022-08-26T12:03:17.057Z,411.4
2022-08-26T12:05:00.761Z,411.5
2022-08-26T12:06:44.462Z,414.1
2022-08-26T12:08:28.158Z,410.3
2022-08-26T12:10:11.861Z,406.7
2022-08-26T12:11:55.563Z,406.3
2022-08-26T12:13:39.266Z,404.8
2022-08-26T12:15:22.966Z,401.7
2022-08-26T12:17:06.676Z,402.4
2022-08-26T12:18:50.380Z,399.8
2022-08-26T12:20:34.086Z,396.7
2022-08-26T12:22:17.773Z,394.6
2022-08-26T12:24:01.478Z,397.2
2022-08-26T12:25:45.178Z,399.8
2022-08-26T12:27:28.879Z,401.2
2022-08-26T12:29:12.601Z,402.1
2022-08-26T12:30:56.287Z,403.4
2022-08-26T12:32:39.994Z,397.6
2022-08-26T12:34:23.690Z,396.9
2022-08-26T12:36:07.415Z,395.9
2022-08-26T12:37:51.097Z,397.7
2022-08-26T12:39:34.788Z,399.2
2022-08-26T12:41:18.497Z,401.1
2022-08-26T12:43:02.200Z,403.8
2022-08-26T12:44:45.901Z,401
2022-08-26T12:46:29.604Z,402.2
2022-08-26T12:48:13.304Z,404.4
2022-08-26T12:49:57.014Z,404
2022-08-26T12:51:40.715Z,405.4
2022-08-26T12:53:24.424Z,407.1
2022-08-26T12:55:08.110Z,410.1
2022-08-26T12:56:51.816Z,410.4
2022-08-26T12:58:35.510Z,406.6
2022-08-26T13:00:19.213Z,406.7
2022-08-26T13:02:02.920Z,407.4
2022-08-26T13:03:46.652Z,404.7
2022-08-26T13:05:30.324Z,402.5
2022-08-26T13:07:14.016Z,400.1
2022-08-26T13:08:57.729Z,397.2
2022-08-26T13:10:41.422Z,397.6
2022-08-26T13:12:25.116Z,392.9
2022-08-26T13:14:08.820Z,395.8
2022-08-26T13:15:52.532Z,395.1
2022-08-26T13:17:36.238Z,394.5
2022-08-26T13:19:19.928Z,395.5
2022-08-26T13:21:03.632Z,399.1
2022-08-26T13:22:47.329Z,400.6
2022-08-26T13:24:31.042Z,398.8
2022-08-26T13:26:14.733Z,397.2
2022-08-26T13:27:58.438Z,396.3
2022-08-26T13:29:42.143Z,397.1
2022-08-26T13:31:25.833Z,398.6
2022-08-26T13:33:09.541Z,400.4
2022-08-26T13:34:53.250Z,400.3
2022-08-26T13:36:36.944Z,401.6
2022-08-26T13:38:20.655Z,397
2022-08-26T13:40:04.355Z,397.7
2022-08-26T13:41:48.049Z,394.4
2022-08-26T13:43:31.760Z,393.4
2022-08-26T13:45:15.448Z,394.5
2022-08-26T13:46:59.157Z,395.1
2022-08-26T13:48:42.862Z,393.2
2022-08-26T13:50:26.555Z,393
2022-08-26T13:52:10.258Z,391.4
2022-08-26T13:53:53.972Z,391.4
2022-08-26T13:55:37.665Z,395.6
2022-08-26T13:57:21.368Z,396.2
2022-08-26T13:59:05.071Z,392.9
2022-08-26T14:00:48.782Z,390.8
2022-08-26T14:02:32.477Z,387.9
2022-08-26T14:04:16.203Z,391.4
2022-08-26T14:05:59.902Z,393.9
2022-08-26T14:07:43.611Z,395.2
2022-08-26T14:09:27.296Z,396.2
2022-08-26T14:11:11.010Z,399
2022-08-26T14:12:54.725Z,399.5
2022-08-26T14:14:38.391Z,398.7
2022-08-26T14:16:22.092Z,396
2022-08-26T14:18:05.801Z,393
2022-08-26T14:19:49.504Z,392.5
2022-08-26T14:21:33.209Z,390.4
2022-08-26T14:23:16.904Z,387.6
2022-08-26T14:25:00.613Z,388.3
2022-08-26T14:26:44.311Z,386.5
2022-08-26T14:28:28.011Z,384.9
2022-08-26T14:30:11.712Z,385.8
2022-08-26T14:31:55.414Z,386.7
2022-08-26T14:33:39.116Z,389.3
2022-08-26T14:35:22.823Z,393.1
2022-08-26T14:37:06.513Z,393.4
2022-08-26T14:38:50.217Z,394.8
2022-08-26T14:40:33.928Z,396.5
2022-08-26T14:42:17.625Z,398.2
2022-08-26T14:44:01.326Z,397.6
2022-08-26T14:45:45.040Z,398.5
2022-08-26T14:47:28.736Z,400.4
2022-08-26T14:49:12.428Z,401.8
2022-08-26T14:50:56.139Z,403.4
2022-08-26T14:52:39.831Z,406.1
2022-08-26T14:54:23.555Z,410.4
2022-08-26T14:56:07.232Z,409.2
2022-08-26T14:57:50.939Z,408.5
2022-08-26T14:59:34.650Z,406.3
2022-08-26T15:01:18.334Z,405.9
2022-08-26T15:03:02.057Z,404.5
2022-08-26T15:04:45.749Z,402.4
2022-08-26T15:06:29.444Z,401.7
2022-08-26T15:08:13.148Z,401
2022-08-26T15:09:56.850Z,399.6
2022-08-26T15:11:40.560Z,397.6
2022-08-26T15:13:24.298Z,394.9
2022-08-26T15:15:07.951Z,394.4
2022-08-26T15:16:51.663Z,399.5
2022-08-26T15:18:35.363Z,401.5
2022-08-26T15:20:19.057Z,399.8
2022-08-26T15:22:02.766Z,396.3
2022-08-26T15:23:46.466Z,394
2022-08-26T15:25:30.163Z,394
2022-08-26T15:27:13.873Z,395.2
2022-08-26T15:28:57.568Z,395.9
2022-08-26T15:30:41.269Z,396.2
2022-08-26T15:32:24.981Z,401.2
2022-08-26T15:34:08.675Z,405.2
2022-08-26T15:35:52.400Z,407.4
2022-08-26T15:37:36.087Z,408.9
2022-08-26T15:39:19.790Z,416.6
2022-08-26T15:41:03.486Z,422.4
2022-08-26T15:42:47.194Z,422.2
2022-08-26T15:44:30.888Z,423.8
2022-08-26T15:47:58.292Z,423.9
2022-08-26T15:49:41.995Z,419
2022-08-26T15:51:25.703Z,420.5
2022-08-26T15:53:09.394Z,421.9
2022-08-26T15:54:53.101Z,420
2022-08-26T15:56:36.814Z,421.7
2022-08-26T15:58:20.503Z,421.4
2022-08-26T16:00:04.211Z,420.5
2022-08-26T16:01:47.914Z,422.1
2022-08-26T16:03:31.616Z,422.4
2022-08-26T16:05:15.320Z,422.3
2022-08-26T16:06:59.014Z,422.8
2022-08-26T16:08:42.722Z,419.7
2022-08-26T16:12:10.116Z,423.8
2022-08-26T16:13:53.827Z,424.1
2022-08-26T16:15:37.529Z,425
2022-08-26T16:17:21.231Z,424.1
2022-08-26T16:19:04.932Z,425.4
2022-08-26T16:20:48.635Z,425
2022-08-26T16:22:32.338Z,423.6
2022-08-26T16:24:16.041Z,421.9
2022-08-26T16:25:59.736Z,423
2022-08-26T16:27:43.441Z,424.2
2022-08-26T16:29:27.144Z,426.4
2022-08-26T16:31:10.843Z,429.2
2022-08-26T16:32:54.547Z,429.3
2022-08-26T16:34:38.248Z,428
2022-08-26T16:36:21.951Z,425.6
2022-08-26T16:38:05.682Z,429
2022-08-26T16:39:49.355Z,426.4
2022-08-26T16:41:33.059Z,422.4
2022-08-26T16:43:16.769Z,420.5
2022-08-26T16:45:00.501Z,417.9
2022-08-26T16:46:44.182Z,418.5
2022-08-26T16:48:27.870Z,421.7
2022-08-26T16:50:11.566Z,421
2022-08-26T16:51:55.272Z,418.1
2022-08-26T16:53:38.978Z,417.7
2022-08-26T16:55:22.671Z,419.3
2022-08-26T16:57:06.386Z,418.6
2022-08-26T16:58:50.081Z,420.6
2022-08-26T17:02:17.487Z,419.9
2022-08-26T17:04:01.184Z,419.5
2022-08-26T17:05:44.896Z,424.4
2022-08-26T17:07:28.606Z,426.1
2022-08-26T17:09:12.295Z,425.2
2022-08-26T17:10:55.994Z,421.2
2022-08-26T17:12:39.726Z,421.4
2022-08-26T17:14:23.397Z,421.4
2022-08-26T17:16:07.106Z,422.6
2022-08-26T17:17:50.817Z,424.4
2022-08-26T17:19:34.507Z,424.7
2022-08-26T17:21:18.212Z,427.5
2022-08-26T17:23:01.918Z,423.2
2022-08-26T17:24:45.614Z,418.1
2022-08-26T17:26:29.316Z,417.4
2022-08-26T17:28:13.021Z,417.2
2022-08-26T17:29:56.725Z,415.9
2022-08-26T17:31:40.433Z,416
2022-08-26T17:33:24.120Z,416.9
2022-08-26T17:35:07.826Z,416.8
2022-08-26T17:36:51.531Z,415.7
2022-08-26T17:38:35.233Z,413.7
2022-08-26T17:40:18.941Z,413.1
2022-08-26T17:42:02.651Z,415.3
2022-08-26T17:43:46.342Z,416.8
2022-08-26T17:45:30.042Z,414.9
2022-08-26T17:47:13.739Z,417.3
2022-08-26T17:48:57.443Z,417.5
2022-08-26T17:50:41.146Z,416.6
2022-08-26T17:52:24.841Z,418.1
2022-08-26T17:54:08.555Z,418.6
2022-08-26T17:55:52.246Z,418.9
2022-08-26T17:57:35.972Z,417.1
2022-08-26T17:59:19.659Z,416.7
2022-08-26T18:01:03.353Z,417.4
2022-08-26T18:02:47.064Z,418.3
2022-08-26T18:04:30.762Z,423.1
2022-08-26T18:06:14.460Z,425.3
2022-08-26T18:07:58.168Z,425.3
2022-08-26T18:09:41.867Z,423.3
2022-08-26T18:11:25.569Z,424
2022-08-26T18:13:09.280Z,421.4
2022-08-26T18:14:52.975Z,419
2022-08-26T18:16:36.681Z,418
2022-08-26T18:18:20.379Z,419
2022-08-26T18:20:04.072Z,420.8
2022-08-26T18:21:47.776Z,422.4
2022-08-26T18:23:31.484Z,421.9
2022-08-26T18:25:15.185Z,423.2
2022-08-26T18:26:58.887Z,423.4
2022-08-26T18:28:42.590Z,424.4
2022-08-26T18:30:26.292Z,425.4
2022-08-26T18:32:09.995Z,427
2022-08-26T18:33:53.703Z,426.7
2022-08-26T18:35:37.393Z,424.7
2022-08-26T18:37:21.107Z,424.5
2022-08-26T18:39:04.802Z,420.8
2022-08-26T18:40:48.503Z,420
2022-08-26T18:42:32.211Z,420.9
2022-08-26T18:44:15.909Z,422.5
2022-08-26T18:45:59.605Z,422.3
2022-08-26T18:47:43.311Z,421
2022-08-26T18:49:27.028Z,418.2
2022-08-26T18:51:10.716Z,420.9
2022-08-26T18:52:54.416Z,420.9
2022-08-26T18:54:38.119Z,418.7
2022-08-26T18:56:21.819Z,417.2
2022-08-26T18:58:05.523Z,415.9
2022-08-26T18:59:49.221Z,416.6
2022-08-26T19:01:32.925Z,420.6
2022-08-26T19:03:16.628Z,421.6
2022-08-26T19:05:00.344Z,422
2022-08-26T19:06:44.038Z,425.3
2022-08-26T19:08:27.739Z,422.7
2022-08-26T19:10:11.451Z,418.9
2022-08-26T19:11:55.142Z,418.3
2022-08-26T19:13:38.845Z,417.6
2022-08-26T19:15:22.550Z,419.5
2022-08-26T19:17:06.252Z,419.1
2022-08-26T19:18:49.950Z,419.7
2022-08-26T19:20:33.653Z,417.9
2022-08-26T19:22:17.352Z,421.9
2022-08-26T19:24:01.084Z,425.6
2022-08-26T19:25:44.773Z,423.3
2022-08-26T19:27:28.464Z,422.6
2022-08-26T19:29:12.168Z,423.1
2022-08-26T19:30:55.867Z,421.2
2022-08-26T19:32:39.575Z,422.4
2022-08-26T19:34:23.292Z,420.6
2022-08-26T19:37:50.681Z,425.5
2022-08-26T19:39:34.382Z,426.4
2022-08-26T19:41:18.078Z,426.8
2022-08-26T19:43:01.796Z,423.4
2022-08-26T19:44:45.482Z,423.4
2022-08-26T19:46:29.192Z,420
2022-08-26T19:48:12.898Z,416
2022-08-26T19:49:56.587Z,414.5
2022-08-26T19:51:40.287Z,415.9
2022-08-26T19:53:23.995Z,417.6
2022-08-26T19:55:07.685Z,419.9
2022-08-26T19:56:51.390Z,422.1
2022-08-26T19:58:35.103Z,423.1
2022-08-26T20:00:18.794Z,426.9
2022-08-26T20:02:02.501Z,429.1
2022-08-26T20:03:46.214Z,428.9
2022-08-26T20:05:29.918Z,430
2022-08-26T20:07:13.614Z,428.1
2022-08-26T20:08:57.311Z,425.8
2022-08-26T20:10:41.036Z,425.7
2022-08-26T20:12:24.753Z,425.2
2022-08-26T20:14:08.410Z,427.7
2022-08-26T20:15:52.117Z,426.2
2022-08-26T20:17:35.827Z,424.5
2022-08-26T20:19:19.526Z,427.4
2022-08-26T20:21:03.231Z,428.8
2022-08-26T20:22:46.926Z,428.3
2022-08-26T20:24:30.629Z,426.1
2022-08-26T20:26:14.334Z,423.9
2022-08-26T20:27:58.025Z,424
2022-08-26T20:29:41.730Z,424.3
2022-08-26T20:31:25.444Z,422.4
2022-08-26T20:33:09.139Z,424.8
2022-08-26T20:34:52.842Z,427.4
2022-08-26T20:36:36.540Z,425.3
2022-08-26T20:38:20.243Z,426.8
2022-08-26T20:40:03.947Z,429.8
2022-08-26T20:41:47.643Z,429.1
2022-08-26T20:43:31.348Z,426
2022-08-26T20:45:15.066Z,425.7
2022-08-26T20:46:58.749Z,426.9
2022-08-26T20:48:42.452Z,426.6
2022-08-26T20:50:26.160Z,426.8
2022-08-26T20:52:09.865Z,423
2022-08-26T20:53:53.563Z,422.4
2022-08-26T20:55:37.268Z,425.4
2022-08-26T20:57:20.970Z,425.8
2022-08-26T20:59:04.666Z,424.7
2022-08-26T21:00:48.370Z,425.1
2022-08-26T21:02:32.073Z,421.5
2022-08-26T21:04:15.778Z,422.6
2022-08-26T21:05:59.479Z,420.9
2022-08-26T21:07:43.182Z,420.6
2022-08-26T21:09:26.889Z,420.9
2022-08-26T21:11:10.582Z,422.6
2022-08-26T21:12:54.285Z,422.6
2022-08-26T21:14:37.994Z,423.5
2022-08-26T21:16:21.695Z,426.5
2022-08-26T21:18:05.402Z,427.1
2022-08-26T21:19:49.087Z,423.7
2022-08-26T21:21:32.818Z,420.2
2022-08-26T21:23:16.503Z,418.3
2022-08-26T21:25:00.197Z,417.3
2022-08-26T21:26:43.913Z,418.4
2022-08-26T21:28:27.608Z,417.3
2022-08-26T21:30:11.296Z,420.9
2022-08-26T21:31:55.001Z,422.2
2022-08-26T21:33:38.740Z,422.2
2022-08-26T21:35:22.406Z,423.2
2022-08-26T21:37:06.111Z,419.3
2022-08-26T21:38:49.816Z,420.1
2022-08-26T21:40:33.512Z,420.7
2022-08-26T21:42:17.217Z,422.5
2022-08-26T21:44:00.908Z,421.8
2022-08-26T21:45:44.614Z,423.6
2022-08-26T21:47:28.329Z,421.2
2022-08-26T21:49:12.016Z,419.5
2022-08-26T21:50:55.718Z,418.7
2022-08-26T21:52:39.421Z,416.2
2022-08-26T21:54:23.126Z,417.6
2022-08-26T21:56:06.821Z,415.8
2022-08-26T21:57:50.519Z,416.3
2022-08-26T21:59:34.233Z,417.7
2022-08-26T22:01:17.930Z,417.1
2022-08-26T22:03:01.630Z,417.1
2022-08-26T22:04:45.333Z,416.8
2022-08-26T22:06:29.032Z,416.9
2022-08-26T22:08:12.731Z,414.6
2022-08-26T22:09:56.440Z,411.4
2022-08-26T22:11:40.146Z,411.8
2022-08-26T22:13:23.852Z,413.7
2022-08-26T22:15:07.552Z,415.2
2022-08-26T22:16:51.245Z,415.8
2022-08-26T22:18:34.951Z,417.4
2022-08-26T22:20:18.658Z,418.5
2022-08-26T22:22:02.361Z,421.2
2022-08-26T22:23:46.059Z,418.2
2022-08-26T22:25:29.763Z,419
2022-08-26T22:27:13.462Z,417.6
2022-08-26T22:28:57.166Z,415.6
2022-08-26T22:30:40.870Z,417.4
2022-08-26T22:32:24.564Z,421.3